• Join FlightAware (Why Join?)
  • Login
  • US Flag 
02:35PM EDT


 

Airport Tracker/Info


-or-


 

Live Flight TrackerFlight Track Log ✈ AMF1695 ✈ 24-May-2013 ✈ KGRI - KOMA

Flight Track Log - Related Links

Times and Time Zones

All times are in EDT time to prevent confusion due to time zone crossing. See the AMF1695 flight status page for this flight to view local times or setup timezone preferences in your user account.

Time Position Orientation Groundspeed Altitude Reporting Facility
EDT Latitude Longitude Course Direction KTS MPH feet Rate Location/Type
09:05PM 40.9997 -98.1839 60° Northeast 182 209 5,700  Level Minneapolis Center
09:06PM 41.0136 -98.0994 78° East 194 223 7,300 1,140 Climbing Minneapolis Center
09:07PM 41.0178 -98.0308 85° East 190 219 8,400 840 Climbing Minneapolis Center
09:08PM 41.0261 -97.9597 81° East 192 221 9,100 300 Climbing Minneapolis Center
09:09PM 41.0139 -97.9056 56° Northeast  Level FlightAware Approximate
09:09PM 41.0353 -97.8772 82° East 214 246 9,100  Level Minneapolis Center
09:10PM 41.0419 -97.7942 84° East 226 260 9,100  Level Minneapolis Center
09:11PM 41.0481 -97.6967 85° East 222 255 9,100  Level Minneapolis Center
09:12PM 41.0522 -97.6292 85° East 226 260 9,100 -60 Level Minneapolis Center
09:13PM 41.0469 -97.5333 94° East 235 270 9,000 -60 Descending Minneapolis Center
09:14PM 41.0614 -97.4492 77° East 238 274 9,000  Level Minneapolis Center
09:15PM 41.0731 -97.3569 80° East 238 274 9,100  Climbing Minneapolis Center
09:16PM 41.0831 -97.2706 81° East 237 273 9,000 -60 Descending Minneapolis Center
09:17PM 41.1097 -97.1836 68° East 236 272 9,000  Level Minneapolis Center
09:18PM 41.1072 -97.0997 92° East 237 273 9,100  Climbing Minneapolis Center
09:19PM 41.1233 -97.0125 76° East 243 280 9,000  Descending Minneapolis Center
09:20PM 41.1392 -96.9253 76° East 244 281 9,100  Climbing Minneapolis Center
09:21PM 41.1456 -96.8175 85° East 243 280 9,000  Descending Minneapolis Center
09:22PM 41.1253 -96.7578 114° Southeast 240 276 9,100  Climbing Minneapolis Center
09:22PM 41.1333 -96.7311 68° East 241 277 9,000 -120 Descending Minneapolis Center
09:23PM 41.1244 -96.6722 101° East 241 277 9,000  Level Minneapolis Center
09:23PM 41.1403 -96.6472 50° Northeast 232 267 9,000 -120 Level Minneapolis Center
09:24PM 41.1464 -96.5869 82° East 237 273 8,900 180 Descending Minneapolis Center
09:24PM 41.1600 -96.5617 54° Northeast 241 277 9,200 60 Climbing Minneapolis Center
09:25PM 41.1706 -96.5014 77° East 242 278 9,000 -120 Descending Minneapolis Center
09:26PM 41.1819 -96.4797 55° Northeast 237 273 9,100 -420 Climbing Minneapolis Center
09:26PM 41.1947 -96.4158 75° East 240 276 8,600 -780 Descending Minneapolis Center
09:27PM 41.2100 -96.3778 62° Northeast 241 277 8,300 -1,020 Descending Minneapolis Center
09:27PM 41.2183 -96.3247 78° East 268 308 7,600 -1,200 Descending Minneapolis Center
09:28PM 41.2333 -96.2842 64° Northeast 253 291 7,100 -1,200 Descending Minneapolis Center
09:28PM 41.2439 -96.2331 75° East 256 295 6,400 -1,020 Descending Minneapolis Center
09:29PM 41.2592 -96.1953 62° Northeast 258 297 6,100 -720 Descending Minneapolis Center
09:29PM 41.2697 -96.1472 74° East 246 283 5,700 -600 Descending Minneapolis Center
09:30PM 41.2825 -96.1131 64° Northeast 252 290 5,500 -1,020 Descending Minneapolis Center
09:30PM 41.3097 -96.0872 35° Northeast 230 265 4,700 -1,140 Descending Minneapolis Center
09:31PM 41.3344 -96.0633 36° Northeast 241 277 4,400 -720 Descending Minneapolis Center
09:31PM 41.3636 -96.0450 25° Northeast 216 249 4,000 -420 Descending Minneapolis Center
09:32PM 41.3875 -96.0211 37° Northeast 223 257 4,000 -540 Level Minneapolis Center
09:32PM 41.3919 -96.0000 74° East 154 177 3,500 -900 Descending Minneapolis Center
09:33PM 41.3847 -95.9711 108° East 173 199 3,100 -840 Descending Minneapolis Center
09:33PM 41.3667 -95.9639 163° South 96 110 2,600 -900 Descending Minneapolis Center
09:34PM 41.3597 -95.9483 121° Southeast 131 151 2,200 -900 Descending Minneapolis Center
09:34PM 41.3444 -95.9417 162° South 92 106 1,700 -600 Descending Minneapolis Center
09:35PM 41.3378 -95.9283 124° Southeast 110 127 1,600 -360 Descending Minneapolis Center
09:35PM 41.3242 -95.9217 160° South 96 110 1,400 -540 Descending Minneapolis Center
09:36PM 41.3164 -95.9083 128° Southeast 100 115 1,100 -540 Descending Minneapolis Center
09:38PM 41.3032 -95.8941 77° East  Level Estimated